createdAt,value
2019-02-12T00:01:31.955Z,5.80
2019-02-12T00:04:03.665Z,5.70
2019-02-12T00:06:35.377Z,5.33
2019-02-12T00:09:09.055Z,5.90
2019-02-12T00:11:41.006Z,6.20
2019-02-12T00:14:12.733Z,5.43
2019-02-12T00:16:44.445Z,5.60
2019-02-12T00:19:16.155Z,6.27
2019-02-12T00:21:47.855Z,6.20
2019-02-12T00:24:19.570Z,5.60
2019-02-12T00:26:51.524Z,6.47
2019-02-12T00:29:23.307Z,7.07
2019-02-12T00:31:55.015Z,6.00
2019-02-12T00:34:27.479Z,6.33
2019-02-12T00:37:09.375Z,5.03
2019-02-12T00:39:41.089Z,5.53
2019-02-12T00:42:12.820Z,4.87
2019-02-12T00:44:44.862Z,4.93
2019-02-12T00:47:16.568Z,3.35
2019-02-12T00:49:48.273Z,2.13
2019-02-12T00:52:19.982Z,5.23
2019-02-12T00:54:51.959Z,7.27
2019-02-12T00:57:23.918Z,7.00
2019-02-12T00:59:55.626Z,6.53
2019-02-12T01:02:27.331Z,3.02
2019-02-12T01:04:59.046Z,3.43
2019-02-12T01:07:30.762Z,4.73
2019-02-12T01:10:02.484Z,5.30
2019-02-12T01:12:35.162Z,6.35
2019-02-12T01:15:09.123Z,4.07
2019-02-12T01:17:41.088Z,6.37
2019-02-12T01:20:13.839Z,3.87
2019-02-12T01:22:45.545Z,6.60
2019-02-12T01:25:17.270Z,3.37
2019-02-12T01:27:48.980Z,7.00
2019-02-12T01:30:20.700Z,4.13
2019-02-12T01:32:52.404Z,5.57
2019-02-12T01:35:24.123Z,3.42
2019-02-12T01:37:55.832Z,3.65
2019-02-12T01:40:27.542Z,5.60
2019-02-12T01:43:02.055Z,6.00
2019-02-12T01:45:33.768Z,7.60
2019-02-12T01:48:05.551Z,6.27
2019-02-12T01:50:37.258Z,6.33
2019-02-12T01:53:09.178Z,8.20
2019-02-12T01:55:41.149Z,7.80
2019-02-12T01:58:12.949Z,8.20
2019-02-12T02:00:44.673Z,4.30
2019-02-12T02:03:16.635Z,5.75
2019-02-12T02:05:48.352Z,4.27
2019-02-12T02:08:20.064Z,6.80
2019-02-12T02:10:51.784Z,4.27
2019-02-12T02:13:23.574Z,3.83
2019-02-12T02:15:55.281Z,5.13
2019-02-12T02:18:26.981Z,4.45
2019-02-12T02:20:58.774Z,6.17
2019-02-12T02:23:30.491Z,7.17
2019-02-12T02:26:02.226Z,4.83
2019-02-12T02:28:34.192Z,6.80
2019-02-12T02:31:06.171Z,6.70
2019-02-12T02:33:38.134Z,7.00
2019-02-12T02:36:09.854Z,5.43
2019-02-12T02:38:41.560Z,4.87
2019-02-12T02:41:13.371Z,5.67
2019-02-12T02:43:45.327Z,6.40
2019-02-12T02:46:17.057Z,4.73
2019-02-12T02:48:48.827Z,6.13
2019-02-12T02:51:20.595Z,3.80
2019-02-12T02:53:52.307Z,2.33
2019-02-12T02:56:24.096Z,3.83
2019-02-12T02:58:56.084Z,6.17
2019-02-12T03:01:27.791Z,5.63
2019-02-12T03:04:00.466Z,3.80
2019-02-12T03:06:33.243Z,6.10
2019-02-12T03:09:07.242Z,5.42
2019-02-12T03:11:39.522Z,2.57
2019-02-12T03:14:11.245Z,4.03
2019-02-12T03:16:42.966Z,4.07
2019-02-12T03:19:14.807Z,4.03
2019-02-12T03:21:46.794Z,3.00
2019-02-12T03:24:18.537Z,3.10
2019-02-12T03:26:50.276Z,3.00
2019-02-12T03:29:22.018Z,5.87
2019-02-12T03:31:53.761Z,3.20
2019-02-12T03:34:25.546Z,2.47
2019-02-12T03:36:57.236Z,5.73
2019-02-12T03:39:28.974Z,4.00
2019-02-12T03:42:00.798Z,5.37
2019-02-12T03:44:32.637Z,3.77
2019-02-12T03:47:04.454Z,3.60
2019-02-12T03:49:36.268Z,5.57
2019-02-12T03:52:12.988Z,4.70
2019-02-12T03:54:43.066Z,4.97
2019-02-12T03:57:14.984Z,4.00
2019-02-12T03:59:46.789Z,4.87
2019-02-12T04:02:18.686Z,4.62
2019-02-12T04:04:50.504Z,2.20
2019-02-12T04:07:22.756Z,4.20
2019-02-12T04:09:54.494Z,3.33
2019-02-12T04:12:26.235Z,4.20
2019-02-12T04:14:58.260Z,3.73
2019-02-12T04:17:29.975Z,3.77
2019-02-12T04:20:01.703Z,2.77
2019-02-12T04:22:33.532Z,2.53
2019-02-12T04:25:05.514Z,2.70
2019-02-12T04:27:37.246Z,2.97
2019-02-12T04:30:10.546Z,2.60
2019-02-12T04:32:42.290Z,2.73
2019-02-12T04:35:14.171Z,2.37
2019-02-12T04:37:45.909Z,2.30
2019-02-12T04:40:17.628Z,2.00
2019-02-12T04:42:49.385Z,2.20
2019-02-12T04:45:21.117Z,2.83
2019-02-12T04:47:52.862Z,3.13
2019-02-12T04:50:24.929Z,2.83
2019-02-12T04:52:56.809Z,2.70
2019-02-12T04:55:28.621Z,2.40
2019-02-12T04:58:00.438Z,2.00
2019-02-12T05:00:32.169Z,3.10
2019-02-12T05:03:03.910Z,2.60
2019-02-12T05:05:35.647Z,2.60
2019-02-12T05:08:07.463Z,2.70
2019-02-12T05:10:44.750Z,3.30
2019-02-12T05:13:16.484Z,2.62
2019-02-12T05:15:48.216Z,3.53
2019-02-12T05:18:19.949Z,1.53
2019-02-12T05:20:51.690Z,1.60
2019-02-12T05:23:23.422Z,1.25
2019-02-12T05:25:55.164Z,2.70
2019-02-12T05:28:27.164Z,3.35
2019-02-12T05:31:02.020Z,3.27
2019-02-12T05:33:34.154Z,2.27
2019-02-12T05:36:05.939Z,2.20
2019-02-12T05:38:37.680Z,1.87
2019-02-12T05:41:11.226Z,2.73
2019-02-12T05:43:42.985Z,3.37
2019-02-12T05:46:14.824Z,2.40
2019-02-12T05:48:46.554Z,2.17
2019-02-12T05:51:18.308Z,2.55
2019-02-12T05:53:50.050Z,3.57
2019-02-12T05:56:21.779Z,2.10
2019-02-12T05:58:53.521Z,2.60
2019-02-12T06:01:25.247Z,2.80
2019-02-12T06:03:56.993Z,2.17
2019-02-12T06:06:28.738Z,2.90
2019-02-12T06:09:00.477Z,2.27
2019-02-12T06:11:34.138Z,3.00
2019-02-12T06:14:06.021Z,2.83
2019-02-12T06:16:37.769Z,1.47
2019-02-12T06:19:11.585Z,2.30
2019-02-12T06:21:43.207Z,2.83
2019-02-12T06:24:15.211Z,2.40
2019-02-12T06:26:47.476Z,3.07
2019-02-12T06:29:19.311Z,1.98
2019-02-12T06:31:51.044Z,3.07
2019-02-12T06:34:22.809Z,13.90
2019-02-12T06:36:54.622Z,3.67
2019-02-12T06:39:26.369Z,2.30
2019-02-12T06:41:58.098Z,3.67
2019-02-12T06:44:29.838Z,2.13
2019-02-12T06:47:01.576Z,3.80
2019-02-12T06:49:33.338Z,3.40
2019-02-12T06:52:05.140Z,2.77
2019-02-12T06:54:36.882Z,2.53
2019-02-12T06:57:09.864Z,3.63
2019-02-12T06:59:42.579Z,2.43
2019-02-12T07:03:07.808Z,4.33
2019-02-12T07:05:49.127Z,3.40
2019-02-12T07:08:56.255Z,2.02
2019-02-12T07:12:34.765Z,4.47
2019-02-12T07:16:04.033Z,3.07
2019-02-12T07:19:25.197Z,2.63
2019-02-12T07:22:38.232Z,2.83
2019-02-12T07:25:28.851Z,1.83
2019-02-12T07:28:49.705Z,4.20
2019-02-12T07:32:16.066Z,2.57
2019-02-12T07:35:43.817Z,1.67
2019-02-12T07:38:57.125Z,3.80
2019-02-12T07:41:48.769Z,2.90
2019-02-12T07:44:41.188Z,1.33
2019-02-12T07:48:04.520Z,2.47
2019-02-12T07:50:57.431Z,3.47
2019-02-12T07:54:37.665Z,3.30
2019-02-12T07:58:28.452Z,2.40
2019-02-12T08:01:53.846Z,3.83
2019-02-12T08:05:02.180Z,4.45
2019-02-12T08:08:23.055Z,4.78
2019-02-12T08:11:53.324Z,5.47
2019-02-12T08:15:05.152Z,3.70
2019-02-12T08:18:24.891Z,2.75
2019-02-12T08:21:35.250Z,4.22
2019-02-12T08:24:51.676Z,4.10
2019-02-12T08:28:36.758Z,3.92
2019-02-12T08:36:19.203Z,2.20
2019-02-12T08:39:23.751Z,4.20
2019-02-12T08:42:40.506Z,4.43
2019-02-12T08:46:05.933Z,1.90
2019-02-12T08:49:27.676Z,4.37
2019-02-12T08:52:41.037Z,4.70
2019-02-12T08:56:03.599Z,2.90
2019-02-12T08:59:26.627Z,4.40
2019-02-12T09:02:38.021Z,4.03
2019-02-12T09:06:06.876Z,3.50
2019-02-12T09:09:30.053Z,3.87
2019-02-12T09:12:57.668Z,3.83
2019-02-12T09:16:37.708Z,3.87
2019-02-12T09:19:47.166Z,1.27
2019-02-12T09:23:16.068Z,4.92
2019-02-12T09:26:18.855Z,4.27
2019-02-12T09:30:02.518Z,5.07
2019-02-12T09:33:31.906Z,3.73
2019-02-12T09:37:16.745Z,3.23
2019-02-12T09:40:55.319Z,2.83
2019-02-12T09:44:43.962Z,4.80
2019-02-12T09:48:05.351Z,1.73
2019-02-12T09:51:44.077Z,5.30
2019-02-12T09:55:04.961Z,4.75
2019-02-12T09:58:02.067Z,2.90
2019-02-12T10:00:53.791Z,2.57
2019-02-12T10:04:33.715Z,4.25
2019-02-12T10:07:29.314Z,2.80
2019-02-12T10:10:27.185Z,3.27
2019-02-12T10:13:43.426Z,2.90
2019-02-12T10:16:48.613Z,4.92
2019-02-12T10:19:57.589Z,3.50
2019-02-12T10:24:02.877Z,3.70
2019-02-12T10:26:35.855Z,2.27
2019-02-12T10:29:29.438Z,3.77
2019-02-12T10:32:08.258Z,2.30
2019-02-12T10:34:32.630Z,4.63
2019-02-12T10:37:04.437Z,2.60
2019-02-12T10:39:36.289Z,2.63
2019-02-12T10:42:08.045Z,4.87
2019-02-12T10:44:39.780Z,2.77
2019-02-12T10:47:11.687Z,3.17
2019-02-12T10:49:43.429Z,4.37
2019-02-12T10:52:15.167Z,3.47
2019-02-12T10:54:47.163Z,5.07
2019-02-12T10:57:19.147Z,4.37
2019-02-12T10:59:50.904Z,2.30
2019-02-12T11:02:22.636Z,4.90
2019-02-12T11:04:54.472Z,3.67
2019-02-12T11:07:26.221Z,3.52
2019-02-12T11:09:57.954Z,2.93
2019-02-12T11:12:30.062Z,3.80
2019-02-12T11:15:02.176Z,2.53
2019-02-12T11:17:34.455Z,3.33
2019-02-12T11:20:07.077Z,2.70
2019-02-12T11:22:46.011Z,3.93
2019-02-12T11:25:18.143Z,4.47
2019-02-12T11:27:59.723Z,3.03
2019-02-12T11:30:55.753Z,1.90
2019-02-12T11:33:10.513Z,3.45
2019-02-12T11:35:42.630Z,3.57
2019-02-12T11:38:14.418Z,3.47
2019-02-12T11:40:46.282Z,2.23
2019-02-12T11:43:18.007Z,1.83
2019-02-12T11:45:49.974Z,3.47
2019-02-12T11:48:21.749Z,4.23
2019-02-12T11:50:53.773Z,3.23
2019-02-12T11:53:25.607Z,4.12
2019-02-12T11:55:57.416Z,4.00
2019-02-12T11:58:29.176Z,3.63
2019-02-12T12:01:03.308Z,5.13
2019-02-12T12:03:35.076Z,4.07
2019-02-12T12:06:06.982Z,2.93
2019-02-12T12:08:38.782Z,3.00
2019-02-12T12:11:10.618Z,5.05
2019-02-12T12:13:42.378Z,4.50
2019-02-12T12:16:14.337Z,3.83
2019-02-12T12:18:46.322Z,3.50
2019-02-12T12:21:18.184Z,2.60
2019-02-12T12:23:49.993Z,2.60
2019-02-12T12:26:21.741Z,3.58
2019-02-12T12:28:53.539Z,3.40
2019-02-12T12:31:25.358Z,3.90
2019-02-12T12:33:57.092Z,3.87
2019-02-12T12:36:28.861Z,1.93
2019-02-12T12:39:00.964Z,3.87
2019-02-12T12:41:33.017Z,3.13
2019-02-12T12:44:05.157Z,2.33
2019-02-12T12:46:36.970Z,3.20
2019-02-12T12:49:09.206Z,5.53
2019-02-12T12:51:40.942Z,4.10
2019-02-12T12:54:12.789Z,2.87
2019-02-12T12:56:44.847Z,3.03
2019-02-12T12:59:16.605Z,2.90
2019-02-12T13:01:48.364Z,3.83
2019-02-12T13:04:21.066Z,4.03
2019-02-12T13:06:52.820Z,4.57
2019-02-12T13:09:24.579Z,3.75
2019-02-12T13:11:56.337Z,3.70
2019-02-12T13:14:28.078Z,1.92
2019-02-12T13:17:00.137Z,3.53
2019-02-12T13:19:31.888Z,2.47
2019-02-12T13:22:03.687Z,4.93
2019-02-12T13:24:35.580Z,4.83
2019-02-12T13:27:07.389Z,5.03
2019-02-12T13:29:39.328Z,4.53
2019-02-12T13:32:11.063Z,3.77
2019-02-12T13:34:43.085Z,4.20
2019-02-12T13:37:14.883Z,3.80
2019-02-12T13:39:47.013Z,4.10
2019-02-12T13:42:18.826Z,2.85
2019-02-12T13:44:50.564Z,1.97
2019-02-12T13:47:22.296Z,3.95
2019-02-12T13:49:54.044Z,2.27
2019-02-12T13:52:25.852Z,3.00
2019-02-12T13:54:57.661Z,3.55
2019-02-12T13:57:29.401Z,3.40
2019-02-12T14:00:01.295Z,2.20
2019-02-12T14:02:34.579Z,2.87
2019-02-12T14:05:08.954Z,2.23
2019-02-12T14:07:40.769Z,4.50
2019-02-12T14:10:12.801Z,3.47
2019-02-12T14:12:44.543Z,2.30
2019-02-12T14:15:16.384Z,2.58
2019-02-12T14:17:48.202Z,2.10
2019-02-12T14:20:19.922Z,3.08
2019-02-12T14:22:51.739Z,3.57
2019-02-12T14:25:25.707Z,1.55
2019-02-12T14:27:57.051Z,3.70
2019-02-12T14:30:28.860Z,2.40
2019-02-12T14:33:01.162Z,3.23
2019-02-12T14:35:32.892Z,2.63
2019-02-12T14:38:04.722Z,2.77
2019-02-12T14:40:36.476Z,2.70
2019-02-12T14:43:14.104Z,2.60
2019-02-12T14:45:42.975Z,1.90
2019-02-12T14:48:14.873Z,1.82
2019-02-12T14:50:46.685Z,2.93
2019-02-12T14:53:18.437Z,2.87
2019-02-12T14:55:50.301Z,1.97
2019-02-12T14:58:22.058Z,1.37
2019-02-12T15:00:54.050Z,2.53
2019-02-12T15:03:25.785Z,2.63
2019-02-12T15:05:57.627Z,2.00
2019-02-12T15:08:29.368Z,2.20
2019-02-12T15:11:01.106Z,2.60
2019-02-12T15:13:32.913Z,1.50
2019-02-12T15:16:04.819Z,3.33
2019-02-12T15:18:36.726Z,2.07
2019-02-12T15:21:09.845Z,3.37
2019-02-12T15:23:41.593Z,1.83
2019-02-12T15:26:13.499Z,2.20
2019-02-12T15:28:45.339Z,1.33
2019-02-12T15:31:17.218Z,2.52
2019-02-12T15:33:48.956Z,1.53
2019-02-12T15:36:20.760Z,3.10
2019-02-12T15:38:52.498Z,2.10
2019-02-12T15:41:24.297Z,2.57
2019-02-12T15:43:56.126Z,1.30
2019-02-12T15:46:27.860Z,2.67
2019-02-12T15:48:59.601Z,1.98
2019-02-12T15:51:31.334Z,3.00
2019-02-12T15:54:03.167Z,2.27
2019-02-12T15:56:34.893Z,2.43
2019-02-12T15:59:06.753Z,3.33
2019-02-12T16:01:38.557Z,2.80
2019-02-12T16:04:10.304Z,2.87
2019-02-12T16:06:42.904Z,3.90
2019-02-12T16:09:17.655Z,4.53
2019-02-12T16:11:49.154Z,5.27
2019-02-12T16:14:20.977Z,5.58
2019-02-12T16:16:54.081Z,4.90
2019-02-12T16:19:25.912Z,7.43
2019-02-12T16:21:57.678Z,7.43
2019-02-12T16:24:29.424Z,4.83
2019-02-12T16:27:01.481Z,5.80
2019-02-12T16:29:33.237Z,3.83
2019-02-12T16:32:05.046Z,4.67
2019-02-12T16:34:37.750Z,4.47
2019-02-12T16:37:09.486Z,6.33
2019-02-12T16:39:41.252Z,5.63
2019-02-12T16:42:13.048Z,3.70
2019-02-12T16:44:44.802Z,4.47
2019-02-12T16:47:16.550Z,4.90
2019-02-12T16:49:48.293Z,6.00
2019-02-12T16:52:21.079Z,3.50
2019-02-12T16:54:52.991Z,3.33
2019-02-12T16:57:24.733Z,4.05
2019-02-12T16:59:56.473Z,4.17
2019-02-12T17:02:28.214Z,3.50
2019-02-12T17:05:00.349Z,5.40
2019-02-12T17:07:33.242Z,7.80
2019-02-12T17:10:05.488Z,9.47
2019-02-12T17:12:37.348Z,5.78
2019-02-12T17:15:10.614Z,6.65
2019-02-12T17:17:42.505Z,21.07
2019-02-12T17:20:16.969Z,18.50
2019-02-12T17:22:49.062Z,11.30
2019-02-12T17:25:20.827Z,4.62
2019-02-12T17:27:52.907Z,5.00
2019-02-12T17:30:24.721Z,4.50
2019-02-12T17:32:57.838Z,4.80
2019-02-12T17:35:29.536Z,5.47
2019-02-12T17:38:01.259Z,6.27
2019-02-12T17:40:32.999Z,5.13
2019-02-12T17:43:04.750Z,4.00
2019-02-12T17:45:36.641Z,3.63
2019-02-12T17:48:08.373Z,4.33
2019-02-12T17:50:40.267Z,4.73
2019-02-12T17:53:13.092Z,6.80
2019-02-12T17:55:44.952Z,8.90
2019-02-12T17:58:16.682Z,7.17
2019-02-12T18:00:48.499Z,5.97
2019-02-12T18:03:20.308Z,5.08
2019-02-12T18:05:53.049Z,6.63
2019-02-12T18:08:24.868Z,8.17
2019-02-12T18:10:56.612Z,8.57
2019-02-12T18:13:28.599Z,7.87
2019-02-12T18:16:00.425Z,5.60
2019-02-12T18:18:32.151Z,5.80
2019-02-12T18:21:03.978Z,5.13
2019-02-12T18:23:35.723Z,6.00
2019-02-12T18:26:07.447Z,5.97
2019-02-12T18:28:39.260Z,6.97
2019-02-12T18:31:11.143Z,6.20
2019-02-12T18:33:42.890Z,5.20
2019-02-12T18:36:14.697Z,6.03
2019-02-12T18:38:46.433Z,4.57
2019-02-12T18:41:18.168Z,4.25
2019-02-12T18:43:49.992Z,4.73
2019-02-12T18:46:21.727Z,3.50
2019-02-12T18:48:53.439Z,4.10
2019-02-12T18:51:26.207Z,4.00
2019-02-12T18:53:58.011Z,4.07
2019-02-12T18:56:29.808Z,4.20
2019-02-12T18:59:01.569Z,4.63
2019-02-12T19:01:33.290Z,3.90
2019-02-12T19:04:05.137Z,4.00
2019-02-12T19:06:36.957Z,3.87
2019-02-12T19:09:12.958Z,5.40
2019-02-12T19:11:53.998Z,4.67
2019-02-12T19:14:18.140Z,4.63
2019-02-12T19:16:49.858Z,3.90
2019-02-12T19:19:21.611Z,3.00
2019-02-12T19:21:53.334Z,2.70
2019-02-12T19:24:25.084Z,3.20
2019-02-12T19:26:56.910Z,2.97
2019-02-12T19:29:28.651Z,3.10
2019-02-12T19:32:00.787Z,3.60
2019-02-12T19:34:32.530Z,3.23
2019-02-12T19:37:04.408Z,3.20
2019-02-12T19:39:36.144Z,3.03
2019-02-12T19:42:07.875Z,3.23
2019-02-12T19:44:39.617Z,3.13
2019-02-12T19:47:11.347Z,3.27
2019-02-12T19:49:43.088Z,3.53
2019-02-12T19:52:14.888Z,3.00
2019-02-12T19:54:46.700Z,3.50
2019-02-12T19:57:18.441Z,3.50
2019-02-12T19:59:50.263Z,3.37
2019-02-12T20:02:21.999Z,4.97
2019-02-12T20:04:54.576Z,5.43
2019-02-12T20:07:26.569Z,4.53
2019-02-12T20:09:58.308Z,4.07
2019-02-12T20:12:31.072Z,3.20
2019-02-12T20:15:02.819Z,3.47
2019-02-12T20:17:34.548Z,2.80
2019-02-12T20:20:07.995Z,3.13
2019-02-12T20:22:40.131Z,3.13
2019-02-12T20:25:12.996Z,3.63
2019-02-12T20:27:44.869Z,3.77
2019-02-12T20:30:16.753Z,3.70
2019-02-12T20:32:48.549Z,3.97
2019-02-12T20:35:20.333Z,6.45
2019-02-12T20:37:52.134Z,7.00
2019-02-12T20:40:23.952Z,7.00
2019-02-12T20:42:55.755Z,6.67
2019-02-12T20:45:29.164Z,5.27
2019-02-12T20:48:00.897Z,5.60
2019-02-12T20:50:32.781Z,5.10
2019-02-12T20:53:04.578Z,5.77
2019-02-12T20:55:36.602Z,3.77
2019-02-12T20:58:09.348Z,4.28
2019-02-12T21:00:41.146Z,4.83
2019-02-12T21:03:12.955Z,4.57
2019-02-12T21:05:44.784Z,4.93
2019-02-12T21:08:16.590Z,6.62
2019-02-12T21:10:48.320Z,5.90
2019-02-12T21:13:20.045Z,7.03
2019-02-12T21:15:51.837Z,5.30
2019-02-12T21:18:23.571Z,5.22
2019-02-12T21:20:55.377Z,5.37
2019-02-12T21:23:27.766Z,5.30
2019-02-12T21:25:59.563Z,4.73
2019-02-12T21:28:31.437Z,4.80
2019-02-12T21:31:03.516Z,4.35
2019-02-12T21:33:35.313Z,4.53
2019-02-12T21:36:07.144Z,4.47
2019-02-12T21:38:38.887Z,5.00
2019-02-12T21:41:11.417Z,4.60
2019-02-12T21:43:43.316Z,4.83
2019-02-12T21:46:15.465Z,4.08
2019-02-12T21:48:47.271Z,4.77
2019-02-12T21:51:19.021Z,4.70
2019-02-12T21:53:51.013Z,5.07
2019-02-12T21:56:22.841Z,5.25
2019-02-12T21:58:54.580Z,4.27
2019-02-12T22:01:26.406Z,4.47
2019-02-12T22:03:58.210Z,4.43
2019-02-12T22:06:29.969Z,5.03
2019-02-12T22:09:01.706Z,5.07
2019-02-12T22:11:34.426Z,4.47
2019-02-12T22:14:07.207Z,4.20
2019-02-12T22:16:39.002Z,3.60
2019-02-12T22:19:10.739Z,4.42
2019-02-12T22:21:42.502Z,3.90
2019-02-12T22:24:14.271Z,4.00
2019-02-12T22:26:46.021Z,3.62
2019-02-12T22:29:17.751Z,3.92
2019-02-12T22:31:49.525Z,3.93
2019-02-12T22:34:21.258Z,3.47
2019-02-12T22:36:53.027Z,4.00
2019-02-12T22:39:24.752Z,3.70
2019-02-12T22:41:56.568Z,3.83
2019-02-12T22:44:28.316Z,4.20
2019-02-12T22:47:00.090Z,3.87
2019-02-12T22:49:31.827Z,4.50
2019-02-12T22:52:03.655Z,4.03
2019-02-12T22:54:35.468Z,4.03
2019-02-12T22:57:07.303Z,4.93
2019-02-12T22:59:39.031Z,3.37
2019-02-12T23:02:11.387Z,3.80
2019-02-12T23:04:43.222Z,3.98
2019-02-12T23:07:15.415Z,4.00
2019-02-12T23:09:47.296Z,4.00
2019-02-12T23:12:19.129Z,3.40
2019-02-12T23:14:50.864Z,3.80
2019-02-12T23:17:22.698Z,3.80
2019-02-12T23:19:54.434Z,3.27
2019-02-12T23:22:26.183Z,3.50
2019-02-12T23:24:57.910Z,3.40
2019-02-12T23:27:29.732Z,4.03
2019-02-12T23:30:01.479Z,3.47
2019-02-12T23:32:33.477Z,3.80
2019-02-12T23:35:05.701Z,3.90
2019-02-12T23:37:37.441Z,3.90
2019-02-12T23:40:09.804Z,3.53
2019-02-12T23:42:41.784Z,3.73
2019-02-12T23:45:13.802Z,3.33
2019-02-12T23:47:45.733Z,4.23
2019-02-12T23:50:19.372Z,3.83
2019-02-12T23:52:51.108Z,3.50
2019-02-12T23:55:22.987Z,3.77
2019-02-12T23:57:54.967Z,3.47
